EZY99QZ EGPH-EGPE
Flight info
| Callsign | EZY99QZ |
|---|---|
| Flight time | 0h 26m |
| Altitude | 20000 |
| Route | GRICE DCT FOYLE N560 NESDI DCT INS |
| Aircraft | A320/M-SDE3FGHIRWY/LB1 |
Departure
| Time | 2026-04-24 13:15 |
|---|---|
| Airport | Edinburgh Airport (EGPH) |
Arrival
| Time | 2026-04-24 13:41 |
|---|---|
| Airport | Inverness Airport (EGPE) |
| Time | Latitude | Longitude | Altitude | Speed | Heading |
|---|---|---|---|---|---|
| 2026-04-24 12:54 | 55.95034 | -3.36098 | 143 ft | 0 kts | 230° |
| 2026-04-24 13:03 | 55.95038 | -3.36090 | 143 ft | 2 kts | 230° |
| 2026-04-24 13:03 | 55.95047 | -3.36070 | 143 ft | 2 kts | 230° |
| 2026-04-24 13:04 | 55.95056 | -3.36049 | 143 ft | 2 kts | 230° |
| 2026-04-24 13:04 | 55.95066 | -3.36028 | 143 ft | 2 kts | 230° |
| 2026-04-24 13:04 | 55.95076 | -3.36007 | 143 ft | 2 kts | 232° |
| 2026-04-24 13:04 | 55.95082 | -3.35983 | 143 ft | 2 kts | 259° |
| 2026-04-24 13:05 | 55.95082 | -3.35956 | 143 ft | 2 kts | 280° |
| 2026-04-24 13:05 | 55.95080 | -3.35942 | 143 ft | 1 kts | 292° |
| 2026-04-24 13:05 | 55.95079 | -3.35935 | 143 ft | 0 kts | 290° |
| 2026-04-24 13:07 | 55.95089 | -3.35980 | 143 ft | 9 kts | 291° |
| 2026-04-24 13:07 | 55.95125 | -3.36162 | 143 ft | 21 kts | 289° |
| 2026-04-24 13:07 | 55.95084 | -3.36429 | 143 ft | 23 kts | 238° |
| 2026-04-24 13:07 | 55.94997 | -3.36682 | 143 ft | 26 kts | 238° |
| 2026-04-24 13:08 | 55.94902 | -3.36965 | 143 ft | 26 kts | 237° |
| 2026-04-24 13:08 | 55.94809 | -3.37241 | 143 ft | 26 kts | 239° |
| 2026-04-24 13:08 | 55.94714 | -3.37520 | 143 ft | 26 kts | 238° |
| 2026-04-24 13:09 | 55.94614 | -3.37966 | 143 ft | 9 kts | 328° |
| 2026-04-24 13:09 | 55.94617 | -3.37969 | 143 ft | 0 kts | 328° |
| 2026-04-24 13:13 | 55.94635 | -3.37988 | 143 ft | 8 kts | 329° |
| 2026-04-24 13:13 | 55.94699 | -3.38060 | 143 ft | 9 kts | 322° |
| 2026-04-24 13:14 | 55.94733 | -3.38026 | 143 ft | 7 kts | 58° |
| 2026-04-24 13:14 | 55.94836 | -3.37722 | 143 ft | 64 kts | 58° |
| 2026-04-24 13:14 | 55.95188 | -3.36684 | 143 ft | 130 kts | 58° |
| 2026-04-24 13:14 | 55.95732 | -3.35075 | 373 ft | 162 kts | 58° |
| 2026-04-24 13:15 | 55.96392 | -3.33508 | 1076 ft | 160 kts | 44° |
| 2026-04-24 13:15 | 55.97214 | -3.32188 | 1744 ft | 163 kts | 40° |
| 2026-04-24 13:15 | 55.98078 | -3.30852 | 2245 ft | 172 kts | 40° |
| 2026-04-24 13:15 | 55.99025 | -3.29374 | 2627 ft | 188 kts | 40° |
| 2026-04-24 13:16 | 56.00191 | -3.28224 | 2983 ft | 203 kts | 9° |
| 2026-04-24 13:16 | 56.01609 | -3.28660 | 3357 ft | 218 kts | 332° |
| 2026-04-24 13:16 | 56.02954 | -3.30149 | 3747 ft | 238 kts | 328° |
| 2026-04-24 13:16 | 56.04371 | -3.31716 | 4489 ft | 242 kts | 328° |
| 2026-04-24 13:17 | 56.05841 | -3.33307 | 5047 ft | 256 kts | 328° |
| 2026-04-24 13:17 | 56.07259 | -3.35305 | 5597 ft | 265 kts | 309° |
| 2026-04-24 13:17 | 56.08083 | -3.38231 | 5948 ft | 268 kts | 287° |
| 2026-04-24 13:17 | 56.08667 | -3.41413 | 6622 ft | 274 kts | 299° |
| 2026-04-24 13:18 | 56.09903 | -3.43937 | 7554 ft | 273 kts | 326° |
| 2026-04-24 13:18 | 56.11544 | -3.45529 | 8431 ft | 275 kts | 334° |
| 2026-04-24 13:18 | 56.13263 | -3.47096 | 9282 ft | 278 kts | 331° |
| 2026-04-24 13:18 | 56.14706 | -3.48578 | 9996 ft | 281 kts | 329° |
| 2026-04-24 13:19 | 56.16221 | -3.50299 | 10734 ft | 284 kts | 327° |
| 2026-04-24 13:19 | 56.17731 | -3.52142 | 11166 ft | 298 kts | 325° |
| 2026-04-24 13:19 | 56.19465 | -3.54369 | 11600 ft | 314 kts | 324° |
| 2026-04-24 13:19 | 56.21042 | -3.56457 | 12154 ft | 321 kts | 323° |
| 2026-04-24 13:20 | 56.22832 | -3.58870 | 12914 ft | 324 kts | 323° |
| 2026-04-24 13:20 | 56.24612 | -3.61295 | 13641 ft | 327 kts | 323° |
| 2026-04-24 13:20 | 56.26424 | -3.63780 | 14325 ft | 330 kts | 323° |
| 2026-04-24 13:20 | 56.28268 | -3.66322 | 14983 ft | 334 kts | 322° |
| 2026-04-24 13:21 | 56.29865 | -3.68530 | 15549 ft | 338 kts | 322° |
| 2026-04-24 13:21 | 56.31731 | -3.71114 | 16175 ft | 342 kts | 322° |
| 2026-04-24 13:21 | 56.33274 | -3.73255 | 16684 ft | 346 kts | 322° |
| 2026-04-24 13:21 | 56.35184 | -3.75914 | 17268 ft | 350 kts | 322° |
| 2026-04-24 13:22 | 56.36724 | -3.78054 | 17722 ft | 354 kts | 321° |
| 2026-04-24 13:22 | 56.38709 | -3.80817 | 18342 ft | 356 kts | 321° |
| 2026-04-24 13:22 | 56.40658 | -3.83538 | 18932 ft | 358 kts | 321° |
| 2026-04-24 13:22 | 56.42628 | -3.86294 | 19244 ft | 357 kts | 321° |
| 2026-04-24 13:23 | 56.44595 | -3.89050 | 19277 ft | 356 kts | 321° |
| 2026-04-24 13:23 | 56.46528 | -3.91759 | 19275 ft | 356 kts | 321° |
| 2026-04-24 13:23 | 56.48494 | -3.94519 | 19275 ft | 356 kts | 321° |
| 2026-04-24 13:23 | 56.50432 | -3.97243 | 19267 ft | 356 kts | 321° |
| 2026-04-24 13:24 | 56.52387 | -3.99994 | 19274 ft | 356 kts | 321° |
| 2026-04-24 13:24 | 56.54350 | -4.02762 | 19261 ft | 357 kts | 321° |
| 2026-04-24 13:24 | 56.56300 | -4.05513 | 19215 ft | 358 kts | 321° |
| 2026-04-24 13:24 | 56.58266 | -4.08292 | 18598 ft | 363 kts | 321° |
| 2026-04-24 13:25 | 56.60264 | -4.11120 | 17935 ft | 366 kts | 321° |
| 2026-04-24 13:25 | 56.62266 | -4.13960 | 17427 ft | 363 kts | 321° |
| 2026-04-24 13:25 | 56.64241 | -4.16766 | 16975 ft | 359 kts | 321° |
| 2026-04-24 13:25 | 56.66190 | -4.19536 | 16564 ft | 355 kts | 321° |
| 2026-04-24 13:26 | 56.68131 | -4.22267 | 16143 ft | 351 kts | 324° |
| 2026-04-24 13:26 | 56.70318 | -4.24150 | 15717 ft | 349 kts | 346° |
| 2026-04-24 13:26 | 56.72722 | -4.24425 | 15312 ft | 347 kts | 5° |
| 2026-04-24 13:26 | 56.75083 | -4.23854 | 14908 ft | 344 kts | 7° |
| 2026-04-24 13:27 | 56.77443 | -4.23222 | 14496 ft | 341 kts | 7° |
| 2026-04-24 13:27 | 56.79762 | -4.22616 | 14080 ft | 338 kts | 7° |
| 2026-04-24 13:27 | 56.82077 | -4.22031 | 13669 ft | 335 kts | 7° |
| 2026-04-24 13:27 | 56.84381 | -4.21460 | 13249 ft | 332 kts | 7° |
| 2026-04-24 13:28 | 56.86663 | -4.20901 | 12831 ft | 330 kts | 7° |
| 2026-04-24 13:28 | 56.88943 | -4.20344 | 12404 ft | 327 kts | 7° |
| 2026-04-24 13:28 | 56.91164 | -4.19801 | 11986 ft | 325 kts | 7° |
| 2026-04-24 13:28 | 56.93403 | -4.19252 | 11574 ft | 322 kts | 7° |
| 2026-04-24 13:29 | 56.95589 | -4.18716 | 11176 ft | 319 kts | 6° |
| 2026-04-24 13:29 | 56.97767 | -4.18181 | 10773 ft | 316 kts | 6° |
| 2026-04-24 13:29 | 56.99941 | -4.17648 | 10453 ft | 309 kts | 6° |
| 2026-04-24 13:29 | 57.02007 | -4.17141 | 10359 ft | 295 kts | 6° |
| 2026-04-24 13:30 | 57.03980 | -4.16657 | 10249 ft | 282 kts | 6° |
| 2026-04-24 13:30 | 57.05933 | -4.16178 | 9900 ft | 280 kts | 6° |
| 2026-04-24 13:30 | 57.07842 | -4.15709 | 9548 ft | 278 kts | 6° |
| 2026-04-24 13:30 | 57.09750 | -4.15241 | 9190 ft | 276 kts | 6° |
| 2026-04-24 13:31 | 57.11631 | -4.14780 | 8835 ft | 274 kts | 6° |
| 2026-04-24 13:31 | 57.13321 | -4.14420 | 8524 ft | 273 kts | 6° |
| 2026-04-24 13:31 | 57.15192 | -4.13967 | 8175 ft | 271 kts | 6° |
| 2026-04-24 13:31 | 57.16834 | -4.13568 | 7873 ft | 270 kts | 6° |
| 2026-04-24 13:32 | 57.18681 | -4.13113 | 7537 ft | 268 kts | 7° |
| 2026-04-24 13:32 | 57.20533 | -4.12652 | 7197 ft | 266 kts | 7° |
| 2026-04-24 13:32 | 57.22351 | -4.12196 | 6864 ft | 264 kts | 7° |
| 2026-04-24 13:32 | 57.24159 | -4.11741 | 6539 ft | 263 kts | 7° |
| 2026-04-24 13:33 | 57.25969 | -4.11285 | 6211 ft | 261 kts | 6° |
| 2026-04-24 13:33 | 57.27753 | -4.11410 | 5844 ft | 259 kts | 342° |
| 2026-04-24 13:33 | 57.29291 | -4.13054 | 5515 ft | 256 kts | 319° |
| 2026-04-24 13:33 | 57.30584 | -4.15256 | 5208 ft | 254 kts | 317° |
| 2026-04-24 13:34 | 57.31817 | -4.17596 | 4883 ft | 253 kts | 309° |
| 2026-04-24 13:34 | 57.32748 | -4.20311 | 4566 ft | 252 kts | 297° |
| 2026-04-24 13:34 | 57.33488 | -4.23259 | 4249 ft | 251 kts | 297° |
| 2026-04-24 13:34 | 57.34301 | -4.26043 | 3935 ft | 250 kts | 302° |
| 2026-04-24 13:35 | 57.35254 | -4.28749 | 3617 ft | 249 kts | 305° |
| 2026-04-24 13:35 | 57.36240 | -4.31345 | 3319 ft | 247 kts | 309° |
| 2026-04-24 13:35 | 57.37357 | -4.33710 | 3058 ft | 243 kts | 321° |
| 2026-04-24 13:35 | 57.38864 | -4.34881 | 2805 ft | 236 kts | 360° |
| 2026-04-24 13:36 | 57.40377 | -4.34079 | 2719 ft | 224 kts | 32° |
| 2026-04-24 13:36 | 57.41545 | -4.32264 | 2654 ft | 212 kts | 45° |
| 2026-04-24 13:36 | 57.42511 | -4.30333 | 2639 ft | 198 kts | 48° |
| 2026-04-24 13:36 | 57.43384 | -4.28467 | 2691 ft | 185 kts | 49° |
| 2026-04-24 13:37 | 57.44214 | -4.26649 | 2768 ft | 186 kts | 49° |
| 2026-04-24 13:37 | 57.45038 | -4.24839 | 2643 ft | 180 kts | 49° |
| 2026-04-24 13:37 | 57.45823 | -4.23117 | 2412 ft | 169 kts | 49° |
| 2026-04-24 13:37 | 57.46550 | -4.21528 | 2165 ft | 153 kts | 49° |
| 2026-04-24 13:38 | 57.47210 | -4.20087 | 1944 ft | 139 kts | 49° |
| 2026-04-24 13:38 | 57.47813 | -4.18771 | 1767 ft | 134 kts | 49° |
| 2026-04-24 13:38 | 57.48423 | -4.17440 | 1608 ft | 134 kts | 49° |
| 2026-04-24 13:38 | 57.49028 | -4.16121 | 1443 ft | 134 kts | 49° |
| 2026-04-24 13:39 | 57.49632 | -4.14806 | 1274 ft | 134 kts | 49° |
| 2026-04-24 13:39 | 57.50227 | -4.13510 | 1102 ft | 133 kts | 49° |
| 2026-04-24 13:39 | 57.50830 | -4.12197 | 923 ft | 133 kts | 49° |
| 2026-04-24 13:39 | 57.51432 | -4.10886 | 745 ft | 133 kts | 49° |
| 2026-04-24 13:40 | 57.52030 | -4.09584 | 567 ft | 133 kts | 49° |
| 2026-04-24 13:40 | 57.52628 | -4.08284 | 392 ft | 132 kts | 49° |
| 2026-04-24 13:40 | 57.53228 | -4.06978 | 224 ft | 132 kts | 49° |
| 2026-04-24 13:40 | 57.53817 | -4.05695 | 67 ft | 131 kts | 49° |
| 2026-04-24 13:41 | 57.54246 | -4.04760 | 38 ft | 36 kts | 46° |
| 2026-04-24 13:41 | 57.54382 | -4.04492 | 38 ft | 8 kts | 10° |
| 2026-04-24 13:41 | 57.54375 | -4.04483 | 38 ft | 8 kts | 225° |
| 2026-04-24 13:41 | 57.54329 | -4.04587 | 38 ft | 12 kts | 228° |
| 2026-04-24 13:42 | 57.54207 | -4.04852 | 38 ft | 41 kts | 230° |
| 2026-04-24 13:42 | 57.54004 | -4.05292 | 38 ft | 44 kts | 229° |
| 2026-04-24 13:42 | 57.53809 | -4.05714 | 38 ft | 41 kts | 229° |
| 2026-04-24 13:42 | 57.53721 | -4.05987 | 38 ft | 19 kts | 287° |
| 2026-04-24 13:43 | 57.53802 | -4.06176 | 38 ft | 18 kts | 349° |
| 2026-04-24 13:43 | 57.53910 | -4.06180 | 38 ft | 10 kts | 337° |
| 2026-04-24 13:43 | 57.53925 | -4.06257 | 38 ft | 4 kts | 276° |